Time;durP1;ratioP1;P1;durP2;ratioP2;P2;SDS_P1;SDS_P2;PMS_P1;PMS_P2;Temp;Humidity;BMP_temperature;BMP_pressure;BME280_temperature;BME280_humidity;BME280_pressure;Samples;Min_cycle;Max_cycle;Signal;HPM_P1;HPM_P2
2022/03/31 00:00:35;;;;;;;3.63;3.53;;;19.10;63.20;;;;;;5110657;27;43942;-71
2022/03/31 00:03:05;;;;;;;3.77;3.67;;;19.00;62.50;;;;;;5092342;27;43904;-70
2022/03/31 00:05:33;;;;;;;3.93;3.83;;;18.90;62.70;;;;;;5096937;27;43614;-70
2022/03/31 00:08:02;;;;;;;3.97;3.87;;;18.80;63.00;;;;;;5096968;27;43527;-70
2022/03/31 00:10:32;;;;;;;4.07;3.97;;;18.70;63.20;;;;;;5078696;27;44030;-70
2022/03/31 00:13:01;;;;;;;4.30;4.20;;;18.60;63.30;;;;;;5098121;27;43996;-70
2022/03/31 00:15:29;;;;;;;4.00;3.90;;;18.60;63.50;;;;;;5110221;27;43942;-70
2022/03/31 00:17:58;;;;;;;3.90;3.80;;;18.60;63.70;;;;;;5110303;27;43455;-70
2022/03/31 00:20:28;;;;;;;3.97;3.87;;;18.50;64.40;;;;;;5110243;27;43851;-70
2022/03/31 00:22:56;;;;;;;4.20;4.10;;;18.70;64.50;;;;;;5091965;27;43578;-70
2022/03/31 00:25:24;;;;;;;3.97;3.87;;;18.80;64.00;;;;;;5109837;27;43931;-70
2022/03/31 00:27:52;;;;;;;3.70;3.53;;;18.90;63.70;;;;;;5110022;27;44012;-70
2022/03/31 00:30:20;;;;;;;4.07;3.97;;;18.90;63.10;;;;;;5091296;27;44027;-70
2022/03/31 00:32:48;;;;;;;3.80;3.70;;;18.80;62.90;;;;;;5108301;27;44015;-70
2022/03/31 00:35:16;;;;;;;4.10;4.00;;;18.70;62.90;;;;;;5091318;27;47366;-70
2022/03/31 00:37:46;;;;;;;3.90;3.80;;;18.70;63.20;;;;;;5091303;27;45528;-70
2022/03/31 00:40:15;;;;;;;4.07;3.97;;;18.60;63.40;;;;;;5110029;27;44044;-71
2022/03/31 00:42:44;;;;;;;3.87;3.73;;;18.60;63.60;;;;;;5108674;27;43450;-69
2022/03/31 00:45:13;;;;;;;3.87;3.77;;;18.50;63.60;;;;;;5090806;27;46315;-70
2022/03/31 00:47:41;;;;;;;3.90;3.80;;;18.50;63.80;;;;;;5091066;27;44749;-71
2022/03/31 00:50:10;;;;;;;4.23;4.13;;;18.40;63.80;;;;;;5109525;27;43366;-70
2022/03/31 00:52:38;;;;;;;3.90;3.80;;;18.40;63.90;;;;;;5109745;27;43559;-70
2022/03/31 00:55:09;;;;;;;4.07;3.97;;;18.40;64.00;;;;;;5109117;27;43534;-71
2022/03/31 00:57:37;;;;;;;4.20;4.10;;;18.40;64.40;;;;;;5108318;27;43960;-70
2022/03/31 01:00:09;;;;;;;4.10;4.00;;;18.60;64.50;;;;;;5109515;27;44037;-72
2022/03/31 01:02:38;;;;;;;4.00;3.90;;;18.80;64.00;;;;;;5110134;27;43917;-70
2022/03/31 01:05:07;;;;;;;3.67;3.57;;;19.00;63.50;;;;;;5090220;27;45397;-71
2022/03/31 01:07:35;;;;;;;3.80;3.60;;;19.20;62.90;;;;;;5090607;27;46394;-70
2022/03/31 01:10:04;;;;;;;4.57;4.47;;;19.30;62.60;;;;;;5109509;27;43838;-70
2022/03/31 01:12:33;;;;;;;3.60;3.50;;;19.20;62.40;;;;;;5109749;27;43947;-70
2022/03/31 01:15:06;;;;;;;3.90;3.80;;;19.10;62.20;;;;;;5109091;27;44967;-70
2022/03/31 01:17:34;;;;;;;3.67;3.57;;;19.00;62.20;;;;;;5089947;27;43929;-71
2022/03/31 01:20:03;;;;;;;4.10;4.00;;;18.90;62.50;;;;;;5096227;27;43778;-69
2022/03/31 01:22:33;;;;;;;4.33;4.23;;;18.80;62.80;;;;;;5097053;27;43936;-70
2022/03/31 01:25:03;;;;;;;4.20;4.10;;;18.70;63.00;;;;;;5109088;27;43957;-70
2022/03/31 01:27:31;;;;;;;4.30;4.20;;;18.60;63.20;;;;;;5109125;27;44002;-70
2022/03/31 01:29:59;;;;;;;4.00;3.90;;;18.60;63.40;;;;;;5090498;27;44092;-70
2022/03/31 01:32:27;;;;;;;4.47;4.27;;;18.50;63.80;;;;;;5109079;27;44105;-70
2022/03/31 01:34:56;;;;;;;4.17;4.07;;;18.50;64.30;;;;;;5109021;27;43993;-70
2022/03/31 01:37:24;;;;;;;4.10;4.00;;;18.70;64.00;;;;;;5109034;27;43489;-70
2022/03/31 01:39:52;;;;;;;4.10;4.00;;;18.80;63.70;;;;;;5109044;27;43960;-71
2022/03/31 01:42:22;;;;;;;3.90;3.80;;;18.90;63.30;;;;;;5090743;27;43980;-70
2022/03/31 01:44:50;;;;;;;3.93;3.83;;;18.80;62.90;;;;;;5108007;27;43932;-69
2022/03/31 01:47:18;;;;;;;4.17;4.07;;;18.80;62.80;;;;;;5090289;27;44945;-70
2022/03/31 01:49:46;;;;;;;4.20;4.10;;;18.70;63.00;;;;;;5108992;27;43488;-70
2022/03/31 01:52:14;;;;;;;4.53;4.33;;;18.60;63.20;;;;;;5109347;27;43890;-70
2022/03/31 01:54:42;;;;;;;4.00;3.90;;;18.50;63.30;;;;;;5106463;27;44043;-70
2022/03/31 01:57:10;;;;;;;4.20;4.10;;;18.50;63.60;;;;;;5108570;27;44038;-70
2022/03/31 01:59:41;;;;;;;4.33;4.23;;;18.50;63.70;;;;;;5108690;27;43947;-70
2022/03/31 02:02:09;;;;;;;4.10;4.00;;;18.40;63.80;;;;;;5109186;27;43948;-70
2022/03/31 02:04:37;;;;;;;4.23;4.13;;;18.40;63.90;;;;;;5108473;27;43888;-70
2022/03/31 02:07:05;;;;;;;4.03;3.93;;;18.40;64.00;;;;;;5108499;27;43989;-69
2022/03/31 02:09:33;;;;;;;4.20;4.10;;;18.40;64.50;;;;;;5089804;27;43475;-70
2022/03/31 02:12:01;;;;;;;4.67;4.47;;;18.50;64.60;;;;;;5108766;27;43996;-70
2022/03/31 02:14:29;;;;;;;4.07;3.97;;;18.70;64.20;;;;;;5089489;27;45877;-69
2022/03/31 02:16:59;;;;;;;4.27;4.17;;;18.90;63.60;;;;;;5108322;27;43888;-70
2022/03/31 02:19:27;;;;;;;4.17;4.07;;;19.10;63.10;;;;;;5108287;27;43947;-70
2022/03/31 02:21:55;;;;;;;4.47;4.30;;;19.10;62.80;;;;;;5108565;27;43482;-70
2022/03/31 02:24:23;;;;;;;4.30;4.20;;;19.10;62.50;;;;;;5107973;27;43984;-70
2022/03/31 02:26:51;;;;;;;4.30;4.20;;;19.00;62.40;;;;;;5107981;27;44015;-70
2022/03/31 02:29:19;;;;;;;4.10;4.00;;;18.90;62.40;;;;;;5089731;27;44002;-70
2022/03/31 02:31:47;;;;;;;4.07;3.97;;;18.80;62.70;;;;;;5107411;27;43525;-70
2022/03/31 02:34:17;;;;;;;4.50;4.40;;;18.70;63.00;;;;;;5108364;27;43963;-70
2022/03/31 02:36:45;;;;;;;4.73;4.53;;;18.60;63.20;;;;;;5107991;27;43917;-70
2022/03/31 02:39:13;;;;;;;4.40;4.30;;;18.60;63.40;;;;;;5108257;27;43984;-71
2022/03/31 02:41:42;;;;;;;4.87;4.67;;;18.50;63.50;;;;;;5108354;27;43481;-70
2022/03/31 02:44:10;;;;;;;5.00;4.80;;;18.40;63.60;;;;;;5107910;27;44402;-71
2022/03/31 02:46:38;;;;;;;4.47;4.37;;;18.40;64.20;;;;;;5107568;27;44031;-70
2022/03/31 02:49:06;;;;;;;4.50;4.40;;;18.50;64.50;;;;;;5107817;27;43903;-70
2022/03/31 02:51:37;;;;;;;4.30;4.20;;;18.70;64.20;;;;;;5107986;27;44021;-70
2022/03/31 02:56:51;;;;;;;4.43;4.30;;;19.00;63.20;;;;;;5097628;27;44050;-71
2022/03/31 02:59:19;;;;;;;4.20;4.10;;;19.00;62.90;;;;;;5107584;27;44021;-70
2022/03/31 03:01:47;;;;;;;4.53;4.43;;;18.90;62.50;;;;;;5108154;27;44039;-71
2022/03/31 03:04:15;;;;;;;4.50;4.40;;;18.80;62.40;;;;;;5107646;27;43885;-70
2022/03/31 03:06:44;;;;;;;4.67;4.53;;;18.70;62.60;;;;;;5107563;27;44122;-70
2022/03/31 03:09:12;;;;;;;4.43;4.33;;;18.60;62.90;;;;;;5105688;27;43984;-70
2022/03/31 03:11:40;;;;;;;4.73;4.63;;;18.60;63.20;;;;;;5108004;27;43352;-69
2022/03/31 03:14:11;;;;;;;4.93;4.73;;;18.50;63.30;;;;;;5107622;27;44009;-70
2022/03/31 03:16:39;;;;;;;4.73;4.57;;;18.50;63.40;;;;;;5107484;27;43899;-69
2022/03/31 03:19:08;;;;;;;4.80;4.70;;;18.50;63.60;;;;;;5106601;27;43942;-70
2022/03/31 03:21:36;;;;;;;5.00;4.83;;;18.40;63.70;;;;;;5107809;27;43406;-70
2022/03/31 03:24:07;;;;;;;4.30;4.20;;;18.40;64.30;;;;;;5107494;27;45097;-69
2022/03/31 03:26:35;;;;;;;4.43;4.33;;;18.50;64.20;;;;;;5088758;27;45264;-70
2022/03/31 03:29:03;;;;;;;4.40;4.30;;;18.80;63.90;;;;;;5107527;27;43888;-69
2022/03/31 03:31:30;;;;;;;4.90;4.80;;;18.90;63.20;;;;;;5107033;27;43991;-71
2022/03/31 03:33:58;;;;;;;4.43;4.33;;;19.10;63.10;;;;;;5107152;27;44800;-69
2022/03/31 03:36:27;;;;;;;4.53;4.43;;;19.00;62.80;;;;;;5107241;27;44117;-70
2022/03/31 03:38:56;;;;;;;4.73;4.53;;;18.90;62.50;;;;;;5089014;27;43916;-70
2022/03/31 03:41:26;;;;;;;4.60;4.50;;;18.90;62.40;;;;;;5107235;27;43802;-70
2022/03/31 03:43:54;;;;;;;4.67;4.47;;;18.80;62.50;;;;;;5107009;27;43931;-70
2022/03/31 03:46:23;;;;;;;5.40;5.10;;;18.70;62.70;;;;;;5107002;27;43991;-69
2022/03/31 03:48:51;;;;;;;5.80;4.97;;;18.60;62.90;;;;;;5107342;27;43938;-70
2022/03/31 03:51:19;;;;;;;6.33;5.73;;;18.60;63.10;;;;;;5088703;27;44023;-70
2022/03/31 03:53:47;;;;;;;5.70;5.23;;;18.50;63.20;;;;;;5107200;27;44021;-69
2022/03/31 03:56:14;;;;;;;6.37;5.73;;;18.50;63.30;;;;;;5106898;27;44084;-70
2022/03/31 03:58:44;;;;;;;8.37;5.93;;;18.50;63.70;;;;;;5107316;27;43924;-70
2022/03/31 04:01:12;;;;;;;10.17;6.80;;;18.50;64.10;;;;;;5107130;27;43981;-69
2022/03/31 04:03:40;;;;;;;11.13;6.60;;;18.70;64.10;;;;;;5106910;27;44049;-70
2022/03/31 04:06:08;;;;;;;10.53;6.50;;;18.80;63.70;;;;;;5107019;27;44013;-70
2022/03/31 04:08:36;;;;;;;9.07;6.50;;;18.80;63.30;;;;;;5107154;27;43896;-70
2022/03/31 04:11:03;;;;;;;8.77;6.70;;;18.80;62.90;;;;;;5106876;27;43993;-70
2022/03/31 04:13:31;;;;;;;7.73;6.90;;;18.70;62.50;;;;;;5106305;27;43936;-69
2022/03/31 04:16:01;;;;;;;6.50;5.83;;;18.70;62.80;;;;;;5106722;27;43946;-70
2022/03/31 04:18:29;;;;;;;8.67;6.70;;;18.60;62.90;;;;;;5106864;27;43872;-70
2022/03/31 04:21:01;;;;;;;8.63;6.47;;;18.50;63.10;;;;;;5107062;27;43450;-70
2022/03/31 04:23:29;;;;;;;7.53;6.60;;;18.50;63.30;;;;;;5105861;27;43935;-70
2022/03/31 04:25:57;;;;;;;7.17;6.47;;;18.50;63.40;;;;;;5106604;27;44000;-70
2022/03/31 04:28:25;;;;;;;8.40;6.83;;;18.40;63.50;;;;;;5088141;27;43357;-70
2022/03/31 04:30:52;;;;;;;8.53;6.40;;;18.40;63.50;;;;;;5106573;27;44121;-70
2022/03/31 04:33:22;;;;;;;9.87;7.43;;;18.40;63.60;;;;;;5109567;27;44007;-70
2022/03/31 04:35:50;;;;;;;7.60;6.90;;;18.40;63.90;;;;;;5109953;27;44113;-70
2022/03/31 04:38:18;;;;;;;9.20;7.50;;;18.40;64.20;;;;;;5110369;27;43891;-69
2022/03/31 04:40:45;;;;;;;7.67;6.60;;;18.60;64.00;;;;;;5110678;27;44263;-70
2022/03/31 04:43:14;;;;;;;7.50;6.83;;;18.80;64.50;;;;;;5110061;27;43947;-70
2022/03/31 04:45:42;;;;;;;8.07;7.27;;;19.00;63.20;;;;;;5107896;27;44106;-69
2022/03/31 04:48:10;;;;;;;10.73;7.57;;;19.20;62.60;;;;;;5110028;27;44022;-70
2022/03/31 04:50:40;;;;;;;9.93;7.33;;;19.20;62.10;;;;;;5110147;27;44082;-70
2022/03/31 04:53:08;;;;;;;9.77;7.57;;;19.20;62.30;;;;;;5109623;27;44097;-69
2022/03/31 04:55:36;;;;;;;7.37;6.70;;;19.00;62.10;;;;;;5109526;27;43626;-70
2022/03/31 04:58:04;;;;;;;7.90;7.20;;;18.90;62.00;;;;;;5110142;27;43980;-70
2022/03/31 05:00:33;;;;;;;8.33;7.13;;;18.80;62.10;;;;;;5110465;27;43992;-70
2022/03/31 05:03:01;;;;;;;7.73;6.93;;;18.70;62.40;;;;;;5096141;27;44057;-70
2022/03/31 05:05:29;;;;;;;7.87;7.07;;;18.60;62.60;;;;;;5095909;27;43958;-70
2022/03/31 05:07:59;;;;;;;8.97;8.03;;;18.60;62.90;;;;;;5096664;27;44052;-70
2022/03/31 05:10:27;;;;;;;9.33;7.20;;;18.50;62.90;;;;;;5096782;27;44025;-70
2022/03/31 05:12:55;;;;;;;11.27;7.40;;;18.50;63.20;;;;;;5080819;27;44386;-70
2022/03/31 05:15:22;;;;;;;8.73;7.93;;;18.50;63.90;;;;;;5096361;27;43399;-69
2022/03/31 05:17:52;;;;;;;8.80;7.40;;;18.50;63.90;;;;;;5096591;27;44029;-70
2022/03/31 05:20:21;;;;;;;8.27;7.13;;;18.70;63.70;;;;;;5096800;27;43970;-70
2022/03/31 05:22:49;;;;;;;7.77;7.00;;;18.80;63.30;;;;;;5109156;27;43995;-69
2022/03/31 05:25:18;;;;;;;7.60;6.80;;;18.80;63.10;;;;;;5103077;27;43912;-69
2022/03/31 05:27:47;;;;;;;8.13;7.33;;;18.80;62.80;;;;;;5109611;27;43959;-70
2022/03/31 05:30:18;;;;;;;7.37;6.77;;;18.70;62.50;;;;;;5109457;27;44009;-70
2022/03/31 05:32:46;;;;;;;8.40;6.97;;;18.70;62.80;;;;;;5109071;27;43923;-70
2022/03/31 05:35:18;;;;;;;7.30;6.60;;;18.60;63.00;;;;;;5090701;27;45286;-70
2022/03/31 05:37:46;;;;;;;7.43;6.83;;;18.50;63.10;;;;;;5109379;27;43904;-69
2022/03/31 05:40:14;;;;;;;7.57;6.87;;;18.50;63.30;;;;;;5109831;27;44062;-71
2022/03/31 05:42:44;;;;;;;8.03;7.23;;;18.40;63.30;;;;;;5108719;27;44009;-71
2022/03/31 05:45:12;;;;;;;7.97;7.27;;;18.40;63.50;;;;;;5108897;27;43959;-69
2022/03/31 05:47:41;;;;;;;8.00;7.30;;;18.40;63.60;;;;;;5109118;27;43944;-69
2022/03/31 05:50:10;;;;;;;7.73;7.03;;;18.40;63.80;;;;;;5109095;27;43963;-69
2022/03/31 05:52:38;;;;;;;7.80;7.10;;;18.40;64.20;;;;;;5108850;27;45142;-69
2022/03/31 05:55:07;;;;;;;7.30;6.60;;;18.50;64.10;;;;;;5089902;27;44632;-70
2022/03/31 05:57:35;;;;;;;8.13;7.20;;;18.70;64.50;;;;;;5108996;27;43934;-70
2022/03/31 06:00:06;;;;;;;8.63;7.07;;;18.90;63.10;;;;;;5109320;27;43960;-69
2022/03/31 06:02:37;;;;;;;8.40;7.60;;;19.10;63.10;;;;;;5105488;27;43942;-69
2022/03/31 06:05:23;;;;;;;7.67;6.97;;;19.10;62.50;;;;;;5090054;27;44773;-70
2022/03/31 06:07:52;;;;;;;7.10;6.50;;;19.00;62.30;;;;;;5089954;27;43959;-70
2022/03/31 06:10:21;;;;;;;7.67;6.93;;;19.00;63.00;;;;;;5109302;27;43879;-70
2022/03/31 06:12:50;;;;;;;6.70;6.20;;;18.80;62.30;;;;;;5108574;27;43969;-70
2022/03/31 06:15:19;;;;;;;7.43;6.83;;;18.70;62.50;;;;;;5090040;27;46357;-69
2022/03/31 06:17:47;;;;;;;7.37;6.67;;;18.60;62.80;;;;;;5109147;27;43376;-70
2022/03/31 06:20:15;;;;;;;7.50;6.83;;;18.50;62.90;;;;;;5108577;27;43915;-70
2022/03/31 06:22:43;;;;;;;7.87;7.13;;;18.50;63.20;;;;;;5108352;27;43960;-70
2022/03/31 06:25:14;;;;;;;7.17;6.57;;;18.50;64.10;;;;;;5108380;27;43837;-70
2022/03/31 06:27:42;;;;;;;7.50;6.87;;;18.40;63.50;;;;;;5095492;27;43906;-70
2022/03/31 06:30:10;;;;;;;7.60;7.00;;;18.40;64.80;;;;;;5108558;27;44225;-70
2022/03/31 06:32:40;;;;;;;8.03;7.33;;;18.50;64.10;;;;;;5094942;27;43952;-70
2022/03/31 06:35:11;;;;;;;7.53;6.90;;;18.70;63.80;;;;;;5095651;27;44016;-70
2022/03/31 06:37:39;;;;;;;7.40;6.70;;;18.80;63.50;;;;;;5089799;27;44015;-70
2022/03/31 06:40:09;;;;;;;6.67;6.17;;;18.70;62.90;;;;;;5108766;27;44070;-70
2022/03/31 06:42:38;;;;;;;7.60;7.00;;;18.70;62.80;;;;;;5107929;27;43892;-70
2022/03/31 06:45:08;;;;;;;7.10;6.50;;;18.60;62.80;;;;;;5108147;27;43933;-70
2022/03/31 06:47:57;;;;;;;7.20;6.70;;;18.50;63.00;;;;;;5108115;27;43970;-69
2022/03/31 06:50:30;;;;;;;7.80;7.10;;;18.50;63.30;;;;;;5108434;27;44020;-69
2022/03/31 06:52:58;;;;;;;7.40;6.80;;;18.40;63.40;;;;;;5107829;27;43902;-70
2022/03/31 06:55:27;;;;;;;7.40;6.77;;;18.30;63.50;;;;;;5106294;27;43957;-69
2022/03/31 06:57:55;;;;;;;6.77;6.37;;;18.30;63.70;;;;;;5107818;27;43930;-69
2022/03/31 07:00:23;;;;;;;7.50;7.00;;;18.30;63.70;;;;;;5089751;27;43555;-70
2022/03/31 07:02:51;;;;;;;7.73;7.03;;;18.30;63.80;;;;;;5107868;27;44026;-70
2022/03/31 07:05:21;;;;;;;7.10;6.47;;;18.30;64.20;;;;;;5108029;27;43860;-69
2022/03/31 07:07:49;;;;;;;6.83;6.33;;;18.30;64.30;;;;;;5107638;27;43454;-70
2022/03/31 07:10:17;;;;;;;7.23;6.63;;;18.50;64.00;;;;;;5108304;27;43443;-69
2022/03/31 07:12:45;;;;;;;6.50;6.00;;;18.80;63.50;;;;;;5107910;27;43986;-70
2022/03/31 07:15:13;;;;;;;7.13;6.63;;;18.90;62.90;;;;;;5107814;27;43334;-70
2022/03/31 07:17:41;;;;;;;6.77;6.30;;;19.00;62.60;;;;;;5106830;27;44078;-70
2022/03/31 07:20:10;;;;;;;6.27;5.87;;;19.00;62.50;;;;;;5108055;27;44026;-70
2022/03/31 07:22:45;;;;;;;7.00;6.50;;;18.90;62.40;;;;;;5107642;27;43893;-70
2022/03/31 07:25:13;;;;;;;7.77;6.97;;;18.80;63.00;;;;;;5107583;27;43845;-70
2022/03/31 07:27:42;;;;;;;6.60;6.10;;;18.70;62.50;;;;;;5076151;27;43987;-70
2022/03/31 07:30:12;;;;;;;7.13;6.60;;;18.60;62.80;;;;;;5076437;27;44052;-71
2022/03/31 07:32:47;;;;;;;7.07;6.57;;;18.50;63.00;;;;;;5105133;27;43982;-70
2022/03/31 07:35:15;;;;;;;6.77;6.27;;;18.40;63.20;;;;;;5107536;27;43955;-70
2022/03/31 07:37:45;;;;;;;7.73;7.13;;;18.40;64.10;;;;;;5107749;27;44048;-69
2022/03/31 07:40:13;;;;;;;6.97;6.47;;;18.40;63.60;;;;;;5107831;27;43892;-70
2022/03/31 07:42:41;;;;;;;7.33;6.80;;;18.30;64.20;;;;;;5106975;27;45134;-70
2022/03/31 07:45:09;;;;;;;6.87;6.43;;;18.50;64.10;;;;;;5107340;27;44385;-70
2022/03/31 07:47:37;;;;;;;6.97;6.57;;;18.60;63.90;;;;;;5107347;27;43887;-71
2022/03/31 07:50:07;;;;;;;6.77;6.37;;;18.70;63.40;;;;;;5107732;27;44001;-70
2022/03/31 07:52:35;;;;;;;7.33;6.80;;;18.70;63.00;;;;;;5088431;27;46687;-70
2022/03/31 07:55:08;;;;;;;6.90;6.50;;;18.60;62.80;;;;;;5107038;27;44015;-70
2022/03/31 07:57:36;;;;;;;6.80;6.27;;;18.50;62.90;;;;;;5107398;27;43885;-69
2022/03/31 08:00:05;;;;;;;7.40;6.80;;;18.40;63.10;;;;;;5107741;27;44061;-69
2022/03/31 08:02:40;;;;;;;6.63;6.20;;;18.40;63.30;;;;;;5103858;27;44346;-70
2022/03/31 08:05:09;;;;;;;6.40;6.00;;;18.40;63.50;;;;;;5105289;27;43475;-70
2022/03/31 08:07:37;;;;;;;6.83;6.20;;;18.30;63.60;;;;;;5110957;27;43916;-70
2022/03/31 08:10:09;;;;;;;6.80;6.30;;;18.30;63.70;;;;;;5110352;27;44036;-70
2022/03/31 08:12:39;;;;;;;6.40;6.00;;;18.20;63.70;;;;;;5110336;27;43949;-70
2022/03/31 08:15:08;;;;;;;7.20;6.73;;;18.20;63.80;;;;;;5110638;27;44040;-70
2022/03/31 08:17:36;;;;;;;7.43;6.87;;;18.20;64.20;;;;;;5110363;27;43497;-70
2022/03/31 08:20:05;;;;;;;6.63;6.17;;;18.30;64.30;;;;;;5111151;27;43470;-69
2022/03/31 08:22:33;;;;;;;6.47;6.07;;;18.50;64.00;;;;;;5110396;27;44022;-69
2022/03/31 08:25:01;;;;;;;6.53;6.13;;;18.70;63.50;;;;;;5110568;27;43911;-70
2022/03/31 08:27:32;;;;;;;6.77;6.30;;;18.90;63.00;;;;;;5091872;27;43804;-70
2022/03/31 08:30:01;;;;;;;6.47;6.07;;;19.00;62.70;;;;;;5110799;27;43950;-70
2022/03/31 08:32:34;;;;;;;6.20;5.90;;;18.90;62.30;;;;;;5091299;27;45789;-71
2022/03/31 08:35:03;;;;;;;6.27;5.83;;;18.80;62.40;;;;;;5096873;27;43828;-70
2022/03/31 08:37:35;;;;;;;6.23;5.87;;;18.70;62.30;;;;;;5097915;27;44050;-70
2022/03/31 08:40:03;;;;;;;6.40;6.00;;;18.60;62.60;;;;;;5110467;27;43908;-69
2022/03/31 08:42:34;;;;;;;6.00;5.60;;;18.50;62.90;;;;;;5109423;27;44031;-69
2022/03/31 08:45:02;;;;;;;6.80;6.40;;;18.40;63.10;;;;;;5091454;27;44703;-70
2022/03/31 08:47:30;;;;;;;6.33;5.97;;;18.40;63.30;;;;;;5109971;27;43887;-70
2022/03/31 08:50:16;;;;;;;6.37;5.97;;;18.30;63.40;;;;;;5110824;27;43670;-70
2022/03/31 08:52:44;;;;;;;5.93;5.60;;;18.30;63.80;;;;;;5091281;27;46309;-71
2022/03/31 08:55:12;;;;;;;6.43;6.03;;;18.30;64.30;;;;;;5109496;27;44013;-70
2022/03/31 08:57:43;;;;;;;6.13;5.73;;;18.50;64.10;;;;;;5109891;27;43687;-70
2022/03/31 09:00:12;;;;;;;6.10;5.70;;;18.60;63.90;;;;;;5108442;27;43435;-70
2022/03/31 09:02:40;;;;;;;5.60;5.30;;;18.70;63.50;;;;;;5109671;27;43892;-71
2022/03/31 09:05:10;;;;;;;6.00;5.70;;;18.60;63.00;;;;;;5109656;27;44045;-69
2022/03/31 09:07:52;;;;;;;6.57;6.10;;;18.60;62.80;;;;;;5109485;27;43872;-69
2022/03/31 09:10:42;;;;;;;5.93;5.60;;;18.50;63.00;;;;;;5109901;27;43989;-69
2022/03/31 09:13:21;;;;;;;5.40;5.17;;;18.40;63.20;;;;;;5102059;27;43969;-70
2022/03/31 09:15:50;;;;;;;5.90;5.60;;;18.40;63.50;;;;;;5107563;27;43557;-70
2022/03/31 09:18:19;;;;;;;5.93;5.60;;;18.30;63.50;;;;;;5090439;27;43796;-70
2022/03/31 09:20:47;;;;;;;6.47;6.00;;;18.30;63.70;;;;;;5091217;27;43992;-70
2022/03/31 09:23:17;;;;;;;6.00;5.63;;;18.20;63.70;;;;;;5109567;27;43931;-70
2022/03/31 09:25:45;;;;;;;5.50;5.20;;;18.30;63.80;;;;;;5109598;27;43841;-70
2022/03/31 09:28:15;;;;;;;5.53;5.27;;;18.20;63.80;;;;;;5109456;27;43392;-70
2022/03/31 09:30:49;;;;;;;6.00;5.60;;;18.20;64.30;;;;;;5110063;27;43978;-70
2022/03/31 09:33:30;;;;;;;5.50;5.20;;;18.30;64.30;;;;;;5109341;27;43662;-71
2022/03/31 09:36:03;;;;;;;5.63;5.43;;;18.50;63.80;;;;;;5109339;27;44106;-69
2022/03/31 09:38:32;;;;;;;5.87;5.47;;;18.80;63.60;;;;;;5109094;27;43817;-70
2022/03/31 09:41:01;;;;;;;5.60;5.30;;;18.90;62.70;;;;;;5109819;27;43965;-70
2022/03/31 09:43:38;;;;;;;5.30;5.00;;;19.00;62.60;;;;;;5109096;27;43695;-70
2022/03/31 09:46:17;;;;;;;5.20;5.00;;;18.90;62.50;;;;;;5109214;27;43874;-70
2022/03/31 09:48:45;;;;;;;5.60;5.30;;;18.80;62.20;;;;;;5107822;27;44022;-70
2022/03/31 09:51:13;;;;;;;5.10;4.90;;;18.70;62.30;;;;;;5090884;27;44056;-70
2022/03/31 09:53:41;;;;;;;5.57;5.27;;;18.60;62.50;;;;;;5108778;27;43939;-71
2022/03/31 09:56:09;;;;;;;4.97;4.73;;;18.50;62.80;;;;;;5108299;27;43364;-70
2022/03/31 09:58:38;;;;;;;5.07;4.77;;;18.40;62.90;;;;;;5108621;27;43947;-70
2022/03/31 10:01:07;;;;;;;5.60;5.30;;;18.40;63.20;;;;;;5109203;27;43967;-71
2022/03/31 10:03:35;;;;;;;5.27;5.07;;;18.40;63.30;;;;;;5090016;27;45975;-69
2022/03/31 10:06:08;;;;;;;5.23;5.03;;;18.30;63.80;;;;;;5108644;27;43991;-69
2022/03/31 10:08:39;;;;;;;5.20;4.93;;;18.30;64.10;;;;;;5108458;27;44009;-69
2022/03/31 10:11:07;;;;;;;5.17;4.90;;;18.50;63.90;;;;;;5090527;27;43999;-69
2022/03/31 10:13:37;;;;;;;4.80;4.60;;;18.60;63.60;;;;;;5108487;27;44003;-70
2022/03/31 10:16:09;;;;;;;4.77;4.57;;;18.70;63.30;;;;;;5108401;27;44455;-69
2022/03/31 10:18:40;;;;;;;5.37;5.07;;;18.60;62.90;;;;;;5095931;27;44283;-69
2022/03/31 10:21:08;;;;;;;4.80;4.60;;;18.60;62.60;;;;;;5109154;27;44046;-71
2022/03/31 10:26:23;;;;;;;5.23;4.93;;;18.40;62.80;;;;;;5108373;27;44026;-70
2022/03/31 10:28:54;;;;;;;5.10;4.70;;;18.40;63.20;;;;;;5089364;27;43882;-69
2022/03/31 10:31:33;;;;;;;5.00;4.80;;;18.30;63.30;;;;;;5090016;27;43872;-70
2022/03/31 10:34:02;;;;;;;5.20;5.00;;;18.30;63.40;;;;;;5107956;27;44806;-70
2022/03/31 10:36:36;;;;;;;5.13;4.93;;;18.20;63.50;;;;;;5108196;27;44002;-70
2022/03/31 10:39:06;;;;;;;5.07;4.77;;;18.20;63.50;;;;;;5108183;27;44350;-70
2022/03/31 10:41:35;;;;;;;5.20;4.90;;;18.20;63.70;;;;;;5095396;27;43881;-70
2022/03/31 10:44:04;;;;;;;5.17;4.87;;;18.20;64.10;;;;;;5095015;27;44054;-70
2022/03/31 10:46:33;;;;;;;5.33;4.90;;;18.30;64.00;;;;;;5063171;27;44734;-70
2022/03/31 10:49:04;;;;;;;4.67;4.47;;;18.50;63.60;;;;;;5107717;27;43895;-70
2022/03/31 10:51:32;;;;;;;4.80;4.60;;;18.80;63.40;;;;;;5108630;27;44070;-70
2022/03/31 10:54:00;;;;;;;5.20;5.00;;;18.90;62.70;;;;;;5089160;27;45079;-69
2022/03/31 10:56:29;;;;;;;5.27;4.97;;;18.90;62.40;;;;;;5107550;27;44071;-69
2022/03/31 10:58:59;;;;;;;4.87;4.67;;;18.90;62.40;;;;;;5107635;27;43374;-70
2022/03/31 11:01:28;;;;;;;4.57;4.37;;;18.80;62.20;;;;;;5108112;27;43406;-69
2022/03/31 11:04:02;;;;;;;4.60;4.40;;;18.70;62.20;;;;;;5088919;27;47101;-70
2022/03/31 11:06:30;;;;;;;4.40;4.20;;;18.60;62.40;;;;;;5107788;27;43977;-71
2022/03/31 11:08:58;;;;;;;5.10;4.90;;;18.50;62.60;;;;;;5107940;27;44014;-69
2022/03/31 11:11:28;;;;;;;4.67;4.47;;;18.40;62.80;;;;;;5108076;27;44003;-69
2022/03/31 11:13:58;;;;;;;5.07;4.87;;;18.40;63.00;;;;;;5089180;27;44601;-70
2022/03/31 11:16:36;;;;;;;4.80;4.60;;;18.30;63.10;;;;;;5107105;27;43376;-69
2022/03/31 11:19:05;;;;;;;4.70;4.50;;;18.30;63.30;;;;;;5107776;27;44033;-69
2022/03/31 11:21:34;;;;;;;4.80;4.60;;;18.30;64.10;;;;;;5107984;27;43881;-69
2022/03/31 11:24:03;;;;;;;4.83;4.63;;;18.40;64.10;;;;;;5107571;27;43603;-70
2022/03/31 11:26:32;;;;;;;5.03;4.83;;;18.50;63.70;;;;;;5088442;27;44755;-69
2022/03/31 11:29:00;;;;;;;4.37;4.20;;;18.60;63.30;;;;;;5107526;27;43907;-69
2022/03/31 11:31:28;;;;;;;4.80;4.60;;;18.60;63.00;;;;;;5106342;27;44110;-70
2022/03/31 11:33:56;;;;;;;4.80;4.60;;;18.60;62.70;;;;;;5106853;27;43923;-70
2022/03/31 11:36:25;;;;;;;4.43;4.30;;;18.50;62.80;;;;;;5107302;27;44059;-71
2022/03/31 11:38:55;;;;;;;4.40;4.20;;;18.40;62.90;;;;;;5107455;27;43946;-69
2022/03/31 11:41:23;;;;;;;4.97;4.77;;;18.30;63.00;;;;;;5109863;27;43928;-69
2022/03/31 11:44:12;;;;;;;5.00;4.80;;;18.30;63.20;;;;;;5110861;27;44030;-70
2022/03/31 11:46:40;;;;;;;4.70;4.50;;;18.20;63.20;;;;;;5110771;27;43941;-70
2022/03/31 11:49:15;;;;;;;4.87;4.63;;;18.20;63.40;;;;;;5111145;27;44029;-69
2022/03/31 11:51:49;;;;;;;4.70;4.50;;;18.20;63.50;;;;;;5111198;27;43914;-70
2022/03/31 11:54:17;;;;;;;5.10;4.90;;;18.20;63.50;;;;;;5110576;27;44036;-70
2022/03/31 11:56:45;;;;;;;4.97;4.77;;;18.10;63.80;;;;;;5110982;27;43962;-70
2022/03/31 11:59:14;;;;;;;4.67;4.47;;;18.20;64.20;;;;;;5092280;27;44697;-70
2022/03/31 12:01:43;;;;;;;4.63;4.43;;;18.40;64.00;;;;;;5111189;27;44030;-71
2022/03/31 12:04:18;;;;;;;4.67;4.47;;;18.60;63.40;;;;;;5110485;27;43948;-69
2022/03/31 12:06:48;;;;;;;4.57;4.43;;;18.80;62.90;;;;;;5110696;27;44391;-70
2022/03/31 12:09:16;;;;;;;4.90;4.70;;;18.90;62.50;;;;;;5111007;27;43361;-70
2022/03/31 12:11:45;;;;;;;4.60;4.40;;;18.90;62.30;;;;;;5092541;27;43941;-71
2022/03/31 12:14:13;;;;;;;4.27;4.10;;;18.80;62.20;;;;;;5110552;27;45111;-70
2022/03/31 12:16:44;;;;;;;4.17;4.07;;;18.70;62.00;;;;;;5110157;27;43972;-70
2022/03/31 12:19:12;;;;;;;4.50;4.40;;;18.60;62.20;;;;;;5091631;27;44006;-70
2022/03/31 12:21:49;;;;;;;4.77;4.57;;;18.50;62.50;;;;;;5111174;27;43963;-70
2022/03/31 12:24:16;;;;;;;4.70;4.60;;;18.40;62.70;;;;;;5091839;27;46400;-69
2022/03/31 12:26:54;;;;;;;4.40;4.30;;;18.40;63.00;;;;;;5110623;27;43360;-70
2022/03/31 12:29:23;;;;;;;4.40;4.30;;;18.30;63.10;;;;;;5109867;27;43904;-70
2022/03/31 12:32:00;;;;;;;4.53;4.40;;;18.30;63.30;;;;;;5110471;27;44058;-69
2022/03/31 12:34:28;;;;;;;4.17;4.07;;;18.20;63.80;;;;;;5091446;27;45536;-69
2022/03/31 12:36:58;;;;;;;4.60;4.50;;;18.30;64.20;;;;;;5110059;27;43461;-70
2022/03/31 12:39:27;;;;;;;4.27;4.17;;;18.40;64.00;;;;;;5110115;27;44013;-69
2022/03/31 12:41:56;;;;;;;4.60;4.50;;;18.60;63.60;;;;;;5110458;27;43406;-70
2022/03/31 12:44:28;;;;;;;4.20;4.10;;;18.60;63.00;;;;;;5109724;27;44038;-70
2022/03/31 12:46:56;;;;;;;4.63;4.43;;;18.50;62.80;;;;;;5109908;27;43283;-70
2022/03/31 12:49:25;;;;;;;4.70;4.50;;;18.50;62.60;;;;;;5091155;27;43482;-70
2022/03/31 12:51:54;;;;;;;4.13;4.03;;;18.40;62.80;;;;;;5109579;27;43986;-70
2022/03/31 12:54:27;;;;;;;4.30;4.20;;;18.30;63.00;;;;;;5109287;27;43996;-69
2022/03/31 12:56:56;;;;;;;4.50;4.40;;;18.20;63.10;;;;;;5109752;27;43958;-70
2022/03/31 12:59:26;;;;;;;4.50;4.30;;;18.20;63.30;;;;;;5109603;27;43896;-69
2022/03/31 13:02:02;;;;;;;4.70;4.60;;;18.20;63.50;;;;;;5091419;27;43680;-69